sensor_id;sensor_type;location;lat;lon;timestamp;pressure;altitude;pressure_sealevel;temperature;humidity
57801;BME280;43627;42.728;23.256;2023-02-01T00:01:08;95065.84;;;-0.39;100.00
57801;BME280;43627;42.728;23.256;2023-02-01T00:03:35;95048.72;;;-0.56;100.00
57801;BME280;43627;42.728;23.256;2023-02-01T00:06:02;95082.31;;;-0.37;100.00
57801;BME280;43627;42.728;23.256;2023-02-01T00:08:29;95063.59;;;-0.44;100.00
57801;BME280;43627;42.728;23.256;2023-02-01T00:11:10;95075.41;;;-0.38;100.00
57801;BME280;43627;42.728;23.256;2023-02-01T00:13:39;95085.75;;;-0.37;100.00
57801;BME280;43627;42.728;23.256;2023-02-01T00:16:14;95076.97;;;-0.41;100.00
57801;BME280;43627;42.728;23.256;2023-02-01T00:18:45;95061.66;;;-0.40;100.00
57801;BME280;43627;42.728;23.256;2023-02-01T00:21:14;95072.38;;;-0.40;100.00
57801;BME280;43627;42.728;23.256;2023-02-01T00:23:42;95084.59;;;-0.36;100.00
57801;BME280;43627;42.728;23.256;2023-02-01T00:26:18;95083.44;;;-0.31;100.00
57801;BME280;43627;42.728;23.256;2023-02-01T00:28:46;95053.66;;;-0.58;100.00
57801;BME280;43627;42.728;23.256;2023-02-01T00:31:12;95059.78;;;-0.58;100.00
57801;BME280;43627;42.728;23.256;2023-02-01T00:33:39;95081.16;;;-0.40;100.00
57801;BME280;43627;42.728;23.256;2023-02-01T00:36:08;95076.97;;;-0.37;100.00
57801;BME280;43627;42.728;23.256;2023-02-01T00:38:37;95070.44;;;-0.40;100.00
57801;BME280;43627;42.728;23.256;2023-02-01T00:41:10;95068.94;;;-0.48;100.00
57801;BME280;43627;42.728;23.256;2023-02-01T00:43:38;95072.41;;;-0.47;100.00
57801;BME280;43627;42.728;23.256;2023-02-01T00:46:05;95047.16;;;-0.57;100.00
57801;BME280;43627;42.728;23.256;2023-02-01T00:48:32;95055.97;;;-0.60;100.00
57801;BME280;43627;42.728;23.256;2023-02-01T00:51:04;95038.03;;;-0.74;100.00
57801;BME280;43627;42.728;23.256;2023-02-01T00:53:32;95063.66;;;-0.66;100.00
57801;BME280;43627;42.728;23.256;2023-02-01T00:55:59;95061.00;;;-0.73;100.00
57801;BME280;43627;42.728;23.256;2023-02-01T00:58:26;95042.25;;;-0.80;100.00
57801;BME280;43627;42.728;23.256;2023-02-01T01:01:08;95042.28;;;-0.91;100.00
57801;BME280;43627;42.728;23.256;2023-02-01T01:03:41;95035.78;;;-0.97;100.00
57801;BME280;43627;42.728;23.256;2023-02-01T01:06:11;95057.16;;;-0.79;100.00
57801;BME280;43627;42.728;23.256;2023-02-01T01:08:38;95057.94;;;-0.82;100.00
57801;BME280;43627;42.728;23.256;2023-02-01T01:11:07;95017.47;;;-1.02;100.00
57801;BME280;43627;42.728;23.256;2023-02-01T01:13:35;95057.53;;;-0.77;100.00
57801;BME280;43627;42.728;23.256;2023-02-01T01:16:03;95045.72;;;-0.83;100.00
57801;BME280;43627;42.728;23.256;2023-02-01T01:18:31;95049.16;;;-0.82;100.00
57801;BME280;43627;42.728;23.256;2023-02-01T01:20:59;95022.41;;;-0.90;100.00
57801;BME280;43627;42.728;23.256;2023-02-01T01:23:27;95045.72;;;-0.87;100.00
57801;BME280;43627;42.728;23.256;2023-02-01T01:25:53;95038.84;;;-0.91;100.00
57801;BME280;43627;42.728;23.256;2023-02-01T01:28:20;95058.34;;;-0.87;100.00
57801;BME280;43627;42.728;23.256;2023-02-01T01:30:47;95049.91;;;-0.86;100.00
57801;BME280;43627;42.728;23.256;2023-02-01T01:33:13;95060.25;;;-0.91;100.00
57801;BME280;43627;42.728;23.256;2023-02-01T01:35:41;95036.94;;;-1.05;100.00
57801;BME280;43627;42.728;23.256;2023-02-01T01:38:10;95062.56;;;-1.00;100.00
57801;BME280;43627;42.728;23.256;2023-02-01T01:40:37;95060.25;;;-0.98;100.00
57801;BME280;43627;42.728;23.256;2023-02-01T01:43:16;95070.56;;;-0.86;100.00
57801;BME280;43627;42.728;23.256;2023-02-01T01:45:43;95064.47;;;-0.94;100.00
57801;BME280;43627;42.728;23.256;2023-02-01T01:48:15;95064.47;;;-0.97;100.00
57801;BME280;43627;42.728;23.256;2023-02-01T01:50:49;95078.59;;;-0.97;100.00
57801;BME280;43627;42.728;23.256;2023-02-01T01:53:22;95066.03;;;-1.03;100.00
57801;BME280;43627;42.728;23.256;2023-02-01T01:55:52;95054.56;;;-1.11;100.00
57801;BME280;43627;42.728;23.256;2023-02-01T01:58:23;95069.06;;;-0.98;100.00
57801;BME280;43627;42.728;23.256;2023-02-01T02:00:52;95072.13;;;-1.06;100.00
57801;BME280;43627;42.728;23.256;2023-02-01T02:03:23;95051.88;;;-1.29;100.00
57801;BME280;43627;42.728;23.256;2023-02-01T02:05:54;95055.69;;;-1.16;100.00
57801;BME280;43627;42.728;23.256;2023-02-01T02:08:25;95027.44;;;-1.52;100.00
57801;BME280;43627;42.728;23.256;2023-02-01T02:10:53;95064.13;;;-1.28;100.00
57801;BME280;43627;42.728;23.256;2023-02-01T02:13:35;95045.00;;;-1.48;100.00
57801;BME280;43627;42.728;23.256;2023-02-01T02:37:40;95069.44;;;-1.06;100.00
57801;BME280;43627;42.728;23.256;2023-02-01T02:40:38;95069.84;;;-1.08;100.00
57801;BME280;43627;42.728;23.256;2023-02-01T02:43:14;95071.34;;;-1.00;100.00
57801;BME280;43627;42.728;23.256;2023-02-01T02:46:12;95043.84;;;-1.11;100.00
57801;BME280;43627;42.728;23.256;2023-02-01T02:49:12;95068.66;;;-0.96;100.00
57801;BME280;43627;42.728;23.256;2023-02-01T02:51:46;95062.19;;;-1.09;100.00
57801;BME280;43627;42.728;23.256;2023-02-01T02:54:42;95041.19;;;-1.22;100.00
57801;BME280;43627;42.728;23.256;2023-02-01T02:57:16;95066.78;;;-1.03;100.00
57801;BME280;43627;42.728;23.256;2023-02-01T03:00:06;95064.09;;;-1.03;100.00
57801;BME280;43627;42.728;23.256;2023-02-01T03:02:54;95066.38;;;-0.98;100.00
57801;BME280;43627;42.728;23.256;2023-02-01T03:05:43;95067.50;;;-0.88;100.00
57801;BME280;43627;42.728;23.256;2023-02-01T03:08:36;95084.69;;;-0.78;100.00
57801;BME280;43627;42.728;23.256;2023-02-01T03:11:06;95095.06;;;-0.84;100.00
57801;BME280;43627;42.728;23.256;2023-02-01T03:13:54;95093.88;;;-0.79;100.00
57801;BME280;43627;42.728;23.256;2023-02-01T03:16:33;95047.28;;;-1.14;100.00
57801;BME280;43627;42.728;23.256;2023-02-01T03:19:06;95087.41;;;-0.93;100.00
57801;BME280;43627;42.728;23.256;2023-02-01T03:21:38;95085.09;;;-0.83;100.00
57801;BME280;43627;42.728;23.256;2023-02-01T03:24:15;95087.41;;;-0.82;100.00
57801;BME280;43627;42.728;23.256;2023-02-01T03:26:49;95088.16;;;-0.81;100.00
57801;BME280;43627;42.728;23.256;2023-02-01T03:29:23;95055.31;;;-1.10;100.00
57801;BME280;43627;42.728;23.256;2023-02-01T03:31:50;95085.88;;;-0.90;100.00
57801;BME280;43627;42.728;23.256;2023-02-01T03:34:19;95089.31;;;-0.82;100.00
57801;BME280;43627;42.728;23.256;2023-02-01T03:36:49;95087.41;;;-0.93;100.00
57801;BME280;43627;42.728;23.256;2023-02-01T03:39:23;95075.94;;;-0.93;100.00
57801;BME280;43627;42.728;23.256;2023-02-01T03:41:57;95070.19;;;-0.84;100.00
57801;BME280;43627;42.728;23.256;2023-02-01T03:52:14;95090.81;;;-0.78;100.00
57801;BME280;43627;42.728;23.256;2023-02-01T03:54:43;95091.59;;;-0.74;100.00
57801;BME280;43627;42.728;23.256;2023-02-01T03:57:13;95091.56;;;-0.67;100.00
57801;BME280;43627;42.728;23.256;2023-02-01T03:59:42;95091.56;;;-0.60;100.00
57801;BME280;43627;42.728;23.256;2023-02-01T04:02:09;95096.53;;;-0.62;100.00
57801;BME280;43627;42.728;23.256;2023-02-01T04:04:36;95083.91;;;-0.68;100.00
57801;BME280;43627;42.728;23.256;2023-02-01T04:07:03;95099.59;;;-0.56;100.00
57801;BME280;43627;42.728;23.256;2023-02-01T04:09:30;95094.59;;;-0.58;100.00
57801;BME280;43627;42.728;23.256;2023-02-01T04:11:57;95093.47;;;-0.53;100.00
57801;BME280;43627;42.728;23.256;2023-02-01T04:14:24;95098.41;;;-0.48;100.00
57801;BME280;43627;42.728;23.256;2023-02-01T04:16:50;95089.63;;;-0.52;100.00
57801;BME280;43627;42.728;23.256;2023-02-01T04:19:17;95077.78;;;-0.54;100.00
57801;BME280;43627;42.728;23.256;2023-02-01T04:21:44;95089.59;;;-0.38;100.00
57801;BME280;43627;42.728;23.256;2023-02-01T04:24:10;95083.09;;;-0.44;100.00
57801;BME280;43627;42.728;23.256;2023-02-01T04:26:37;95093.78;;;-0.33;100.00
57801;BME280;43627;42.728;23.256;2023-02-01T04:29:04;95084.66;;;-0.53;100.00
57801;BME280;43627;42.728;23.256;2023-02-01T04:31:31;95086.94;;;-0.48;100.00
57801;BME280;43627;42.728;23.256;2023-02-01T04:33:57;95098.03;;;-0.46;100.00
57801;BME280;43627;42.728;23.256;2023-02-01T04:36:24;95091.16;;;-0.51;100.00
57801;BME280;43627;42.728;23.256;2023-02-01T04:38:51;95082.38;;;-0.62;100.00
57801;BME280;43627;42.728;23.256;2023-02-01T04:41:19;95080.09;;;-0.56;100.00
57801;BME280;43627;42.728;23.256;2023-02-01T04:43:47;95096.13;;;-0.49;100.00
57801;BME280;43627;42.728;23.256;2023-02-01T04:46:14;95106.81;;;-0.35;100.00
57801;BME280;43627;42.728;23.256;2023-02-01T04:48:41;95107.19;;;-0.37;100.00
57801;BME280;43627;42.728;23.256;2023-02-01T04:51:08;95112.50;;;-0.22;100.00
57801;BME280;43627;42.728;23.256;2023-02-01T04:53:36;95101.47;;;-0.46;100.00
57801;BME280;43627;42.728;23.256;2023-02-01T04:56:03;95106.03;;;-0.36;100.00
57801;BME280;43627;42.728;23.256;2023-02-01T04:58:30;95117.88;;;-0.33;100.00
57801;BME280;43627;42.728;23.256;2023-02-01T05:00:57;95095.75;;;-0.51;100.00
57801;BME280;43627;42.728;23.256;2023-02-01T05:03:23;95101.09;;;-0.48;100.00
57801;BME280;43627;42.728;23.256;2023-02-01T05:05:50;95123.25;;;-0.40;100.00
57801;BME280;43627;42.728;23.256;2023-02-01T05:08:20;95107.22;;;-0.47;100.00
57801;BME280;43627;42.728;23.256;2023-02-01T05:10:48;95130.50;;;-0.30;100.00
57801;BME280;43627;42.728;23.256;2023-02-01T05:13:15;95127.81;;;-0.30;100.00
57801;BME280;43627;42.728;23.256;2023-02-01T05:16:00;95101.09;;;-0.44;100.00
57801;BME280;43627;42.728;23.256;2023-02-01T05:18:27;95136.19;;;-0.10;100.00
57801;BME280;43627;42.728;23.256;2023-02-01T05:20:54;95134.69;;;-0.15;100.00
57801;BME280;43627;42.728;23.256;2023-02-01T05:23:21;95115.19;;;-0.19;100.00
57801;BME280;43627;42.728;23.256;2023-02-01T05:25:48;95110.22;;;-0.24;100.00
57801;BME280;43627;42.728;23.256;2023-02-01T05:28:14;95132.00;;;-0.15;100.00
57801;BME280;43627;42.728;23.256;2023-02-01T05:30:41;95135.78;;;-0.05;100.00
57801;BME280;43627;42.728;23.256;2023-02-01T05:33:07;95131.56;;;-0.03;100.00
57801;BME280;43627;42.728;23.256;2023-02-01T05:35:34;95123.56;;;-0.13;100.00
57801;BME280;43627;42.728;23.256;2023-02-01T05:38:01;95133.09;;;0.02;100.00
57801;BME280;43627;42.728;23.256;2023-02-01T05:40:27;95123.53;;;0.01;100.00
57801;BME280;43627;42.728;23.256;2023-02-01T05:42:54;95133.44;;;0.08;100.00
57801;BME280;43627;42.728;23.256;2023-02-01T05:45:21;95137.28;;;0.07;100.00
57801;BME280;43627;42.728;23.256;2023-02-01T05:47:47;95136.06;;;0.18;100.00
57801;BME280;43627;42.728;23.256;2023-02-01T05:50:15;95129.22;;;0.14;100.00
57801;BME280;43627;42.728;23.256;2023-02-01T05:52:42;95134.16;;;0.19;100.00
57801;BME280;43627;42.728;23.256;2023-02-01T05:55:09;95141.00;;;0.27;100.00
57801;BME280;43627;42.728;23.256;2023-02-01T05:57:36;95144.09;;;0.25;100.00
57801;BME280;43627;42.728;23.256;2023-02-01T06:00:03;95143.72;;;0.23;100.00
57801;BME280;43627;42.728;23.256;2023-02-01T06:02:30;95126.91;;;0.12;100.00
57801;BME280;43627;42.728;23.256;2023-02-01T06:04:56;95128.47;;;0.10;100.00
57801;BME280;43627;42.728;23.256;2023-02-01T06:07:23;95117.78;;;-0.05;100.00
57801;BME280;43627;42.728;23.256;2023-02-01T06:09:50;95123.03;;;0.24;100.00
57801;BME280;43627;42.728;23.256;2023-02-01T06:12:16;95136.81;;;0.30;100.00
57801;BME280;43627;42.728;23.256;2023-02-01T06:14:43;95139.84;;;0.32;100.00
57801;BME280;43627;42.728;23.256;2023-02-01T06:17:10;95144.75;;;0.44;100.00
57801;BME280;43627;42.728;23.256;2023-02-01T06:19:36;95117.72;;;0.13;100.00
57801;BME280;43627;42.728;23.256;2023-02-01T06:22:03;95128.03;;;0.22;100.00
57801;BME280;43627;42.728;23.256;2023-02-01T06:24:32;95139.41;;;0.44;100.00
57801;BME280;43627;42.728;23.256;2023-02-01T06:26:59;95140.16;;;0.48;100.00
57801;BME280;43627;42.728;23.256;2023-02-01T06:29:25;95144.69;;;0.58;100.00
57801;BME280;43627;42.728;23.256;2023-02-01T06:31:52;95146.56;;;0.68;100.00
57801;BME280;43627;42.728;23.256;2023-02-01T06:34:20;95154.25;;;0.63;100.00
57801;BME280;43627;42.728;23.256;2023-02-01T06:36:48;95130.91;;;0.52;100.00
57801;BME280;43627;42.728;23.256;2023-02-01T06:39:15;95123.59;;;0.56;100.00
57801;BME280;43627;42.728;23.256;2023-02-01T06:41:46;95140.34;;;0.75;100.00
57801;BME280;43627;42.728;23.256;2023-02-01T06:44:12;95116.72;;;0.59;100.00
57801;BME280;43627;42.728;23.256;2023-02-01T06:46:39;95138.47;;;0.72;100.00
57801;BME280;43627;42.728;23.256;2023-02-01T06:49:06;95153.72;;;0.82;100.00
57801;BME280;43627;42.728;23.256;2023-02-01T06:51:34;95170.28;;;0.77;100.00
57801;BME280;43627;42.728;23.256;2023-02-01T06:54:00;95164.09;;;0.80;100.00
57801;BME280;43627;42.728;23.256;2023-02-01T06:56:27;95149.22;;;0.68;100.00
57801;BME280;43627;42.728;23.256;2023-02-01T06:58:54;95171.28;;;0.94;100.00
57801;BME280;43627;42.728;23.256;2023-02-01T07:01:21;95178.19;;;0.95;100.00
57801;BME280;43627;42.728;23.256;2023-02-01T07:03:49;95177.84;;;0.89;100.00
57801;BME280;43627;42.728;23.256;2023-02-01T07:06:20;95188.56;;;0.93;100.00
57801;BME280;43627;42.728;23.256;2023-02-01T07:08:47;95195.09;;;0.92;100.00
57801;BME280;43627;42.728;23.256;2023-02-01T07:11:14;95178.31;;;0.77;100.00
57801;BME280;43627;42.728;23.256;2023-02-01T07:13:41;95192.84;;;0.87;100.00
57801;BME280;43627;42.728;23.256;2023-02-01T07:16:12;95192.00;;;0.97;99.43
57801;BME280;43627;42.728;23.256;2023-02-01T07:18:39;95198.47;;;1.03;99.58
57801;BME280;43627;42.728;23.256;2023-02-01T07:21:06;95182.41;;;0.96;98.48
57801;BME280;43627;42.728;23.256;2023-02-01T07:23:33;95202.94;;;1.20;98.30
57801;BME280;43627;42.728;23.256;2023-02-01T07:26:02;95180.88;;;0.98;97.31
57801;BME280;43627;42.728;23.256;2023-02-01T07:28:31;95193.84;;;1.07;97.86
57801;BME280;43627;42.728;23.256;2023-02-01T07:31:06;95205.66;;;1.17;95.46
57801;BME280;43627;42.728;23.256;2023-02-01T07:33:33;95189.25;;;1.07;95.35
57801;BME280;43627;42.728;23.256;2023-02-01T07:36:02;95198.81;;;1.08;95.30
57801;BME280;43627;42.728;23.256;2023-02-01T07:38:29;95211.41;;;1.19;95.21
57801;BME280;43627;42.728;23.256;2023-02-01T07:41:04;95188.13;;;1.01;94.11
57801;BME280;43627;42.728;23.256;2023-02-01T07:43:32;95167.06;;;0.96;94.60
57801;BME280;43627;42.728;23.256;2023-02-01T07:46:03;95209.75;;;1.32;96.11
57801;BME280;43627;42.728;23.256;2023-02-01T07:48:31;95158.59;;;1.01;92.75
57801;BME280;43627;42.728;23.256;2023-02-01T07:50:59;95205.63;;;1.24;92.13
57801;BME280;43627;42.728;23.256;2023-02-01T07:53:26;95232.69;;;1.47;92.59
57801;BME280;43627;42.728;23.256;2023-02-01T07:55:55;95206.31;;;1.31;92.14
57801;BME280;43627;42.728;23.256;2023-02-01T07:58:23;95238.06;;;1.47;92.26
57801;BME280;43627;42.728;23.256;2023-02-01T08:00:50;95227.31;;;1.47;92.80
57801;BME280;43627;42.728;23.256;2023-02-01T08:03:35;95231.88;;;1.50;92.18
57801;BME280;43627;42.728;23.256;2023-02-01T08:06:03;95245.66;;;1.56;91.32
57801;BME280;43627;42.728;23.256;2023-02-01T08:08:29;95218.13;;;1.45;91.05
57801;BME280;43627;42.728;23.256;2023-02-01T08:10:58;95230.34;;;1.53;89.01
57801;BME280;43627;42.728;23.256;2023-02-01T08:13:25;95139.31;;;1.13;90.13
57801;BME280;43627;42.728;23.256;2023-02-01T08:15:51;95225.66;;;1.64;89.02
57801;BME280;43627;42.728;23.256;2023-02-01T08:18:18;95189.63;;;1.54;88.50
57801;BME280;43627;42.728;23.256;2023-02-01T08:20:45;95233.88;;;1.87;88.43
57801;BME280;43627;42.728;23.256;2023-02-01T08:23:12;95208.25;;;1.76;86.29
57801;BME280;43627;42.728;23.256;2023-02-01T08:25:38;95240.09;;;1.81;86.05
57801;BME280;43627;42.728;23.256;2023-02-01T08:28:06;95203.28;;;1.74;87.24
57801;BME280;43627;42.728;23.256;2023-02-01T08:30:36;95229.75;;;1.76;87.11
57801;BME280;43627;42.728;23.256;2023-02-01T08:33:04;95236.13;;;1.92;85.40
57801;BME280;43627;42.728;23.256;2023-02-01T08:35:34;95153.69;;;1.37;86.16
57801;BME280;43627;42.728;23.256;2023-02-01T08:38:08;95245.66;;;2.00;85.11
57801;BME280;43627;42.728;23.256;2023-02-01T08:40:35;95253.66;;;2.08;84.01
57801;BME280;43627;42.728;23.256;2023-02-01T08:43:02;95246.72;;;2.10;82.99
57801;BME280;43627;42.728;23.256;2023-02-01T08:45:29;95249.38;;;2.14;81.17
57801;BME280;43627;42.728;23.256;2023-02-01T08:47:56;95170.78;;;1.99;81.04
57801;BME280;43627;42.728;23.256;2023-02-01T08:50:24;95219.31;;;2.56;77.36
57801;BME280;43627;42.728;23.256;2023-02-01T08:52:52;95240.38;;;2.92;75.25
57801;BME280;43627;42.728;23.256;2023-02-01T08:55:20;95228.56;;;3.13;72.77
57801;BME280;43627;42.728;23.256;2023-02-01T08:57:47;95236.84;;;3.26;70.50
57801;BME280;43627;42.728;23.256;2023-02-01T09:00:16;95219.00;;;3.35;68.72
57801;BME280;43627;42.728;23.256;2023-02-01T09:02:43;95238.78;;;3.49;67.62
57801;BME280;43627;42.728;23.256;2023-02-01T09:05:11;95233.59;;;3.85;66.27
57801;BME280;43627;42.728;23.256;2023-02-01T09:07:38;95218.34;;;3.75;65.06
57801;BME280;43627;42.728;23.256;2023-02-01T09:10:05;95250.13;;;4.10;64.50
57801;BME280;43627;42.728;23.256;2023-02-01T09:12:33;95233.00;;;3.97;63.90
57801;BME280;43627;42.728;23.256;2023-02-01T09:15:00;95225.44;;;3.65;63.36
57801;BME280;43627;42.728;23.256;2023-02-01T09:17:27;95255.63;;;4.03;64.65
57801;BME280;43627;42.728;23.256;2023-02-01T09:19:59;95260.88;;;3.90;64.57
57801;BME280;43627;42.728;23.256;2023-02-01T09:22:25;95247.78;;;3.42;63.89
57801;BME280;43627;42.728;23.256;2023-02-01T09:24:53;95231.03;;;3.27;65.31
57801;BME280;43627;42.728;23.256;2023-02-01T09:27:21;95237.91;;;3.32;66.17
57801;BME280;43627;42.728;23.256;2023-02-01T09:29:48;95236.56;;;3.43;66.42
57801;BME280;43627;42.728;23.256;2023-02-01T09:32:20;95158.44;;;3.17;65.02
57801;BME280;43627;42.728;23.256;2023-02-01T09:34:48;95230.28;;;3.97;64.40
57801;BME280;43627;42.728;23.256;2023-02-01T09:37:15;95213.25;;;3.80;62.25
57801;BME280;43627;42.728;23.256;2023-02-01T09:39:42;95209.63;;;3.67;62.15
57801;BME280;43627;42.728;23.256;2023-02-01T09:48:16;95199.41;;;3.78;60.83
57801;BME280;43627;42.728;23.256;2023-02-01T09:50:51;95197.66;;;3.68;61.59
57801;BME280;43627;42.728;23.256;2023-02-01T09:53:34;95208.63;;;3.57;62.33
57801;BME280;43627;42.728;23.256;2023-02-01T09:56:20;95196.66;;;3.58;62.59
57801;BME280;43627;42.728;23.256;2023-02-01T10:01:20;95178.50;;;4.06;61.19
57801;BME280;43627;42.728;23.256;2023-02-01T10:03:50;95169.97;;;3.87;60.39
57801;BME280;43627;42.728;23.256;2023-02-01T10:09:32;95188.81;;;4.11;59.30
57801;BME280;43627;42.728;23.256;2023-02-01T10:14:59;95182.66;;;4.30;61.23
57801;BME280;43627;42.728;23.256;2023-02-01T10:23:43;95186.13;;;4.30;58.34
57801;BME280;43627;42.728;23.256;2023-02-01T10:26:31;95165.72;;;4.29;57.03
57801;BME280;43627;42.728;23.256;2023-02-01T10:29:02;95167.31;;;4.27;57.98
57801;BME280;43627;42.728;23.256;2023-02-01T10:31:31;95159.97;;;4.47;57.00
57801;BME280;43627;42.728;23.256;2023-02-01T10:34:06;95160.50;;;4.58;57.96
57801;BME280;43627;42.728;23.256;2023-02-01T10:36:56;95156.53;;;4.63;56.51
57801;BME280;43627;42.728;23.256;2023-02-01T10:39:23;95109.25;;;4.19;56.96
57801;BME280;43627;42.728;23.256;2023-02-01T10:41:51;95165.56;;;4.17;56.90
57801;BME280;43627;42.728;23.256;2023-02-01T10:44:23;95151.56;;;3.82;57.92
57801;BME280;43627;42.728;23.256;2023-02-01T10:46:51;95161.31;;;3.76;59.64
57801;BME280;43627;42.728;23.256;2023-02-01T10:49:24;95127.97;;;3.86;59.34
57801;BME280;43627;42.728;23.256;2023-02-01T10:54:38;95144.41;;;4.71;58.63
57801;BME280;43627;42.728;23.256;2023-02-01T10:57:08;95132.19;;;4.99;56.37
57801;BME280;43627;42.728;23.256;2023-02-01T10:59:36;95122.63;;;4.78;56.50
57801;BME280;43627;42.728;23.256;2023-02-01T11:02:31;95114.31;;;5.05;56.69
57801;BME280;43627;42.728;23.256;2023-02-01T11:05:09;95131.38;;;5.19;54.45
57801;BME280;43627;42.728;23.256;2023-02-01T11:07:39;95135.06;;;4.76;53.68
57801;BME280;43627;42.728;23.256;2023-02-01T11:10:36;95126.47;;;4.61;53.89
57801;BME280;43627;42.728;23.256;2023-02-01T11:13:04;95094.69;;;4.69;55.42
57801;BME280;43627;42.728;23.256;2023-02-01T11:15:31;95092.97;;;4.58;55.24
57801;BME280;43627;42.728;23.256;2023-02-01T11:18:14;95117.16;;;4.82;55.25
57801;BME280;43627;42.728;23.256;2023-02-01T11:20:42;95076.31;;;4.44;56.44
57801;BME280;43627;42.728;23.256;2023-02-01T11:23:16;95094.38;;;4.99;56.17
57801;BME280;43627;42.728;23.256;2023-02-01T11:25:53;95106.69;;;4.84;54.40
57801;BME280;43627;42.728;23.256;2023-02-01T11:28:23;95092.00;;;4.85;55.74
57801;BME280;43627;42.728;23.256;2023-02-01T11:30:54;95076.81;;;4.75;56.65
57801;BME280;43627;42.728;23.256;2023-02-01T11:33:26;95089.81;;;4.96;55.38
57801;BME280;43627;42.728;23.256;2023-02-01T11:35:57;95106.59;;;4.87;55.75
57801;BME280;43627;42.728;23.256;2023-02-01T11:38:32;95105.16;;;4.67;55.05
57801;BME280;43627;42.728;23.256;2023-02-01T11:43:57;95072.81;;;4.63;55.12
57801;BME280;43627;42.728;23.256;2023-02-01T11:46:33;95087.63;;;4.75;54.37
57801;BME280;43627;42.728;23.256;2023-02-01T11:49:25;95077.66;;;4.88;53.71
57801;BME280;43627;42.728;23.256;2023-02-01T12:06:21;95095.88;;;5.16;54.47
57801;BME280;43627;42.728;23.256;2023-02-01T12:25:23;95086.75;;;4.78;55.34
57801;BME280;43627;42.728;23.256;2023-02-01T12:33:49;95087.34;;;5.18;55.41
57801;BME280;43627;42.728;23.256;2023-02-01T12:39:06;95087.19;;;5.41;53.88
57801;BME280;43627;42.728;23.256;2023-02-01T12:47:18;95091.72;;;5.44;52.86
57801;BME280;43627;42.728;23.256;2023-02-01T12:50:05;95082.63;;;5.67;53.76
57801;BME280;43627;42.728;23.256;2023-02-01T12:52:48;95061.19;;;5.60;53.46
57801;BME280;43627;42.728;23.256;2023-02-01T12:57:53;95077.59;;;5.82;52.88
57801;BME280;43627;42.728;23.256;2023-02-01T13:00:36;95046.94;;;5.72;51.57
57801;BME280;43627;42.728;23.256;2023-02-01T13:05:58;95069.78;;;5.71;53.03
57801;BME280;43627;42.728;23.256;2023-02-01T13:08:47;95081.19;;;5.79;52.04
57801;BME280;43627;42.728;23.256;2023-02-01T13:11:26;95077.59;;;5.53;50.59
57801;BME280;43627;42.728;23.256;2023-02-01T13:16:45;95067.28;;;5.48;51.91
57801;BME280;43627;42.728;23.256;2023-02-01T13:19:21;95086.38;;;5.57;52.09
57801;BME280;43627;42.728;23.256;2023-02-01T13:21:59;95070.69;;;5.52;52.29
57801;BME280;43627;42.728;23.256;2023-02-01T13:24:42;95072.53;;;5.55;51.85
57801;BME280;43627;42.728;23.256;2023-02-01T13:27:13;95084.94;;;5.69;51.89
57801;BME280;43627;42.728;23.256;2023-02-01T13:38:28;95070.13;;;5.57;52.00
57801;BME280;43627;42.728;23.256;2023-02-01T13:43:51;95079.41;;;5.72;51.83
57801;BME280;43627;42.728;23.256;2023-02-01T13:46:19;95047.41;;;5.84;52.65
57801;BME280;43627;42.728;23.256;2023-02-01T13:49:22;95069.28;;;6.18;51.98
57801;BME280;43627;42.728;23.256;2023-02-01T13:51:44;95049.03;;;6.10;51.07
57801;BME280;43627;42.728;23.256;2023-02-01T13:54:36;95073.19;;;6.17;49.70
57801;BME280;43627;42.728;23.256;2023-02-01T13:57:10;95078.38;;;6.12;50.67
57801;BME280;43627;42.728;23.256;2023-02-01T14:13:35;95069.63;;;6.20;49.90
57801;BME280;43627;42.728;23.256;2023-02-01T14:21:31;95055.72;;;6.06;51.35
57801;BME280;43627;42.728;23.256;2023-02-01T14:32:00;95054.38;;;5.68;51.55
57801;BME280;43627;42.728;23.256;2023-02-01T14:45:46;95053.84;;;4.99;53.69
57801;BME280;43627;42.728;23.256;2023-02-01T14:48:54;95051.47;;;4.85;54.05
57801;BME280;43627;42.728;23.256;2023-02-01T14:50:50;95027.94;;;4.69;54.43
57801;BME280;43627;42.728;23.256;2023-02-01T14:53:22;95008.66;;;4.35;55.26
57801;BME280;43627;42.728;23.256;2023-02-01T14:56:00;95032.53;;;4.52;56.09
57801;BME280;43627;42.728;23.256;2023-02-01T14:58:40;95053.16;;;4.63;56.34
57801;BME280;43627;42.728;23.256;2023-02-01T15:01:16;95047.22;;;4.51;57.53
57801;BME280;43627;42.728;23.256;2023-02-01T15:04:08;95055.91;;;4.43;58.59
57801;BME280;43627;42.728;23.256;2023-02-01T15:09:16;95054.63;;;4.31;59.38
57801;BME280;43627;42.728;23.256;2023-02-01T15:14:21;95042.03;;;4.24;60.50
57801;BME280;43627;42.728;23.256;2023-02-01T15:16:48;95057.03;;;4.25;59.95
57801;BME280;43627;42.728;23.256;2023-02-01T15:19:25;95037.91;;;4.20;60.27
57801;BME280;43627;42.728;23.256;2023-02-01T15:21:56;95008.28;;;3.80;62.24
57801;BME280;43627;42.728;23.256;2023-02-01T15:24:25;95045.47;;;4.09;63.52
57801;BME280;43627;42.728;23.256;2023-02-01T15:26:54;95035.16;;;4.04;63.90
57801;BME280;43627;42.728;23.256;2023-02-01T15:29:23;95045.19;;;4.03;63.47
57801;BME280;43627;42.728;23.256;2023-02-01T15:31:54;95040.63;;;4.00;60.42
57801;BME280;43627;42.728;23.256;2023-02-01T15:34:21;95046.94;;;3.93;60.10
57801;BME280;43627;42.728;23.256;2023-02-01T15:36:48;95046.69;;;4.04;59.61
57801;BME280;43627;42.728;23.256;2023-02-01T15:39:28;95048.56;;;4.07;59.61
57801;BME280;43627;42.728;23.256;2023-02-01T15:42:00;95054.31;;;4.09;59.12
57801;BME280;43627;42.728;23.256;2023-02-01T15:44:37;95053.00;;;3.97;59.88
57801;BME280;43627;42.728;23.256;2023-02-01T15:47:18;95038.53;;;3.88;60.04
57801;BME280;43627;42.728;23.256;2023-02-01T15:49:51;95034.41;;;3.83;60.47
57801;BME280;43627;42.728;23.256;2023-02-01T15:54:59;95055.22;;;3.83;62.38
57801;BME280;43627;42.728;23.256;2023-02-01T15:57:33;95041.13;;;3.75;61.41